createdAt,value
2019-03-06T00:01:23.328Z,79.49
2019-03-06T00:03:58.364Z,79.36
2019-03-06T00:06:33.219Z,79.26
2019-03-06T00:09:09.474Z,79.13
2019-03-06T00:11:44.421Z,78.93
2019-03-06T00:14:19.318Z,78.77
2019-03-06T00:16:54.175Z,78.77
2019-03-06T00:19:29.086Z,78.79
2019-03-06T00:22:03.916Z,78.68
2019-03-06T00:24:38.887Z,78.84
2019-03-06T00:27:15.381Z,78.80
2019-03-06T00:29:51.392Z,79.15
2019-03-06T00:32:26.247Z,79.41
2019-03-06T00:35:03.557Z,79.13
2019-03-06T00:37:38.399Z,79.22
2019-03-06T00:40:31.018Z,79.64
2019-03-06T00:43:05.838Z,79.74
2019-03-06T00:45:40.630Z,79.57
2019-03-06T00:48:15.479Z,79.98
2019-03-06T00:50:50.458Z,79.94
2019-03-06T00:53:25.211Z,80.44
2019-03-06T00:55:59.969Z,80.55
2019-03-06T00:58:34.938Z,80.70
2019-03-06T01:01:09.910Z,81.29
2019-03-06T01:03:44.645Z,81.16
2019-03-06T01:06:19.543Z,80.91
2019-03-06T01:08:54.579Z,80.86
2019-03-06T01:11:29.429Z,81.14
2019-03-06T01:14:04.279Z,81.58
2019-03-06T01:16:39.537Z,81.58
2019-03-06T01:19:14.384Z,81.75
2019-03-06T01:21:49.179Z,81.83
2019-03-06T01:24:24.073Z,81.88
2019-03-06T01:26:59.025Z,81.90
2019-03-06T01:29:33.932Z,82.16
2019-03-06T01:32:08.804Z,82.12
2019-03-06T01:34:59.913Z,81.91
2019-03-06T01:37:45.737Z,81.63
2019-03-06T01:40:34.221Z,81.94
2019-03-06T01:43:13.505Z,81.91
2019-03-06T01:45:48.291Z,82.23
2019-03-06T01:48:23.433Z,82.28
2019-03-06T01:50:58.398Z,82.10
2019-03-06T01:53:34.149Z,82.10
2019-03-06T01:56:08.967Z,81.87
2019-03-06T01:58:44.965Z,81.97
2019-03-06T02:01:19.817Z,82.07
2019-03-06T02:03:54.718Z,81.72
2019-03-06T02:06:29.563Z,81.94
2019-03-06T02:09:05.681Z,81.99
2019-03-06T02:11:41.603Z,82.18
2019-03-06T02:14:16.927Z,82.31
2019-03-06T02:16:51.783Z,82.16
2019-03-06T02:19:27.994Z,81.90
2019-03-06T02:22:02.849Z,82.13
2019-03-06T02:24:38.159Z,82.08
2019-03-06T02:27:13.013Z,82.10
2019-03-06T02:29:48.157Z,82.13
2019-03-06T02:32:23.240Z,81.90
2019-03-06T02:34:58.021Z,82.03
2019-03-06T02:37:33.105Z,82.06
2019-03-06T02:40:08.223Z,82.37
2019-03-06T02:42:45.019Z,82.14
2019-03-06T02:45:21.823Z,81.96
2019-03-06T02:47:58.034Z,82.17
2019-03-06T02:50:33.199Z,82.45
2019-03-06T02:53:09.948Z,82.07
2019-03-06T02:55:44.884Z,82.14
2019-03-06T02:58:26.053Z,81.63
2019-03-06T03:01:38.031Z,81.87
2019-03-06T03:04:30.315Z,81.83
2019-03-06T03:07:08.696Z,81.57
2019-03-06T03:09:44.140Z,81.34
2019-03-06T03:12:20.534Z,81.67
2019-03-06T03:14:55.374Z,81.32
2019-03-06T03:17:31.269Z,81.14
2019-03-06T03:20:07.055Z,81.44
2019-03-06T03:22:42.008Z,81.20
2019-03-06T03:26:47.360Z,80.91
2019-03-06T03:29:24.835Z,81.39
2019-03-06T03:31:59.708Z,80.92
2019-03-06T03:34:34.681Z,80.84
2019-03-06T03:37:16.166Z,80.77
2019-03-06T03:39:51.607Z,80.34
2019-03-06T03:42:26.513Z,80.29
2019-03-06T03:45:01.581Z,80.72
2019-03-06T03:47:36.941Z,80.74
2019-03-06T03:50:11.952Z,80.35
2019-03-06T03:52:47.103Z,80.53
2019-03-06T03:55:22.113Z,80.24
2019-03-06T03:57:57.541Z,80.39
2019-03-06T04:00:32.507Z,80.36
2019-03-06T04:03:07.401Z,80.22
2019-03-06T04:05:42.574Z,79.69
2019-03-06T04:08:17.455Z,79.80
2019-03-06T04:10:52.318Z,79.75
2019-03-06T04:13:29.650Z,79.84
2019-03-06T04:16:06.944Z,79.74
2019-03-06T04:18:44.343Z,79.63
2019-03-06T04:21:20.336Z,79.79
2019-03-06T04:23:58.993Z,79.63
2019-03-06T04:26:34.746Z,80.48
2019-03-06T04:29:09.789Z,80.76
2019-03-06T04:31:44.667Z,81.07
2019-03-06T04:34:19.525Z,81.15
2019-03-06T04:36:54.389Z,82.14
2019-03-06T04:39:35.281Z,82.45
2019-03-06T04:42:10.137Z,82.64
2019-03-06T04:44:44.932Z,83.00
2019-03-06T04:47:19.838Z,83.25
2019-03-06T04:49:54.619Z,83.93
2019-03-06T04:52:29.361Z,84.43
2019-03-06T04:55:04.663Z,84.67
2019-03-06T04:57:39.519Z,85.27
2019-03-06T05:00:15.779Z,85.08
2019-03-06T05:02:51.488Z,85.48
2019-03-06T05:05:26.419Z,85.31
2019-03-06T05:08:01.284Z,85.57
2019-03-06T05:10:36.099Z,86.10
2019-03-06T05:13:11.154Z,86.33
2019-03-06T05:15:45.973Z,86.42
2019-03-06T05:18:54.651Z,86.30
2019-03-06T05:21:29.461Z,86.64
2019-03-06T05:24:07.283Z,87.19
2019-03-06T05:26:42.558Z,87.49
2019-03-06T05:29:28.959Z,87.80
2019-03-06T05:32:32.502Z,87.60
2019-03-06T05:36:17.949Z,87.48
2019-03-06T05:39:04.393Z,87.47
2019-03-06T05:41:43.197Z,87.28
2019-03-06T05:44:17.755Z,87.54
2019-03-06T05:46:52.646Z,87.55
2019-03-06T05:49:27.415Z,87.69
2019-03-06T05:52:02.703Z,87.61
2019-03-06T05:54:37.608Z,87.82
2019-03-06T05:57:14.751Z,88.02
2019-03-06T05:59:49.646Z,88.10
2019-03-06T06:02:24.613Z,88.15
2019-03-06T06:04:59.667Z,87.87
2019-03-06T06:07:34.705Z,87.96
2019-03-06T06:10:11.286Z,88.37
2019-03-06T06:12:50.481Z,88.19
2019-03-06T06:15:26.111Z,88.11
2019-03-06T06:18:02.549Z,88.21
2019-03-06T06:20:37.340Z,88.18
2019-03-06T06:23:31.119Z,88.30
2019-03-06T06:26:09.012Z,88.68
2019-03-06T06:28:45.479Z,88.67
2019-03-06T06:31:20.367Z,88.96
2019-03-06T06:33:55.267Z,89.01
2019-03-06T06:36:30.991Z,89.06
2019-03-06T06:39:06.952Z,88.92
2019-03-06T06:41:41.835Z,88.84
2019-03-06T06:44:16.609Z,88.71
2019-03-06T06:46:51.498Z,88.78
2019-03-06T06:49:27.263Z,88.77
2019-03-06T06:53:11.064Z,88.76
2019-03-06T06:56:49.907Z,88.61
2019-03-06T07:00:07.418Z,88.80
2019-03-06T07:03:37.486Z,88.94
2019-03-06T07:06:37.089Z,88.80
2019-03-06T07:09:29.365Z,88.80
2019-03-06T07:12:15.891Z,89.01
2019-03-06T07:15:08.136Z,88.78
2019-03-06T07:18:00.743Z,88.74
2019-03-06T07:20:42.920Z,88.93
2019-03-06T07:23:54.858Z,88.91
2019-03-06T07:26:49.147Z,88.74
2019-03-06T07:29:46.088Z,88.32
2019-03-06T07:32:39.828Z,88.42
2019-03-06T07:36:19.474Z,88.39
2019-03-06T07:38:58.222Z,88.00
2019-03-06T07:41:51.086Z,88.05
2019-03-06T07:44:50.529Z,88.14
2019-03-06T07:47:44.046Z,87.93
2019-03-06T07:50:36.305Z,87.63
2019-03-06T07:53:55.427Z,87.43
2019-03-06T07:56:36.768Z,87.23
2019-03-06T07:59:12.248Z,87.21
2019-03-06T08:01:57.544Z,87.45
2019-03-06T08:04:32.534Z,87.47
2019-03-06T08:07:14.584Z,86.90
2019-03-06T08:09:49.448Z,86.70
2019-03-06T08:12:36.626Z,86.54
2019-03-06T08:15:38.723Z,86.71
2019-03-06T08:18:35.616Z,86.70
2019-03-06T08:21:18.056Z,86.73
2019-03-06T08:24:05.273Z,85.33
2019-03-06T08:26:40.132Z,85.52
2019-03-06T08:29:14.974Z,85.56
2019-03-06T08:32:18.376Z,85.48
2019-03-06T08:34:53.258Z,84.44
2019-03-06T08:37:28.131Z,84.49
2019-03-06T08:40:03.036Z,83.95
2019-03-06T08:42:37.870Z,83.69
2019-03-06T08:45:14.504Z,83.85
2019-03-06T08:48:14.200Z,83.76
2019-03-06T08:50:54.602Z,82.88
2019-03-06T08:53:50.466Z,83.36
2019-03-06T08:56:37.552Z,83.64
2019-03-06T08:59:31.780Z,83.83
2019-03-06T09:02:28.652Z,83.08
2019-03-06T09:05:30.895Z,82.94
2019-03-06T09:08:27.726Z,83.23
2019-03-06T09:11:31.528Z,83.62
2019-03-06T09:14:43.440Z,82.21
2019-03-06T09:17:26.708Z,82.18
2019-03-06T09:20:18.847Z,82.41
2019-03-06T09:23:11.265Z,82.21
2019-03-06T09:25:56.761Z,82.17
2019-03-06T09:29:00.797Z,81.31
2019-03-06T09:31:39.828Z,80.52
2019-03-06T09:34:21.298Z,80.71
2019-03-06T09:37:08.969Z,81.02
2019-03-06T09:40:02.952Z,80.46
2019-03-06T09:42:53.068Z,79.95
2019-03-06T09:45:46.324Z,80.11
2019-03-06T09:48:40.064Z,80.82
2019-03-06T09:51:24.687Z,80.47
2019-03-06T09:54:18.433Z,80.00
2019-03-06T09:57:11.147Z,80.00
2019-03-06T09:59:54.185Z,80.49
2019-03-06T10:02:45.658Z,80.45
2019-03-06T10:05:25.104Z,79.85
2019-03-06T10:08:12.592Z,79.38
2019-03-06T10:10:57.823Z,79.57
2019-03-06T10:13:42.240Z,79.46
2019-03-06T10:16:28.750Z,79.19
2019-03-06T10:19:25.673Z,79.57
2019-03-06T10:22:00.528Z,78.97
2019-03-06T10:24:35.470Z,79.28
2019-03-06T10:27:10.400Z,78.88
2019-03-06T10:29:45.230Z,79.16
2019-03-06T10:32:20.957Z,78.27
2019-03-06T10:34:55.960Z,79.31
2019-03-06T10:37:30.904Z,78.35
2019-03-06T10:40:06.730Z,79.57
2019-03-06T10:42:41.663Z,78.78
2019-03-06T10:45:17.747Z,77.87
2019-03-06T10:47:52.910Z,77.39
2019-03-06T10:50:28.938Z,77.52
2019-03-06T10:53:04.511Z,78.37
2019-03-06T10:55:39.405Z,76.98
2019-03-06T10:58:14.366Z,76.81
2019-03-06T11:00:58.109Z,76.80
2019-03-06T11:03:43.308Z,77.60
2019-03-06T11:06:18.674Z,75.32
2019-03-06T11:08:53.828Z,75.78
2019-03-06T11:11:29.034Z,74.92
2019-03-06T11:14:06.411Z,75.17
2019-03-06T11:16:41.565Z,74.53
2019-03-06T11:19:17.119Z,74.10
2019-03-06T11:21:52.236Z,73.84
2019-03-06T11:24:27.257Z,73.10
2019-03-06T11:27:02.314Z,72.93
2019-03-06T11:29:37.267Z,72.71
2019-03-06T11:32:12.687Z,71.21
2019-03-06T11:34:47.577Z,71.53
2019-03-06T11:37:23.084Z,71.29
2019-03-06T11:39:57.996Z,71.44
2019-03-06T11:42:33.082Z,70.97
2019-03-06T11:45:09.667Z,70.52
2019-03-06T11:47:44.628Z,70.31
2019-03-06T11:50:20.244Z,70.76
2019-03-06T11:52:55.438Z,69.55
2019-03-06T11:55:30.827Z,69.75
2019-03-06T11:58:08.148Z,70.61
2019-03-06T12:00:46.360Z,69.85
2019-03-06T12:03:23.907Z,71.18
2019-03-06T12:06:01.328Z,71.36
2019-03-06T12:08:45.635Z,69.76
2019-03-06T12:11:16.281Z,69.19
2019-03-06T12:13:51.431Z,67.71
2019-03-06T12:16:26.633Z,67.28
2019-03-06T12:19:01.628Z,67.42
2019-03-06T12:21:36.567Z,67.83
2019-03-06T12:24:13.121Z,67.20
2019-03-06T12:26:48.066Z,66.46
2019-03-06T12:29:23.050Z,67.81
2019-03-06T12:31:57.949Z,67.01
2019-03-06T12:34:33.197Z,67.05
2019-03-06T12:37:07.975Z,65.54
2019-03-06T12:39:42.874Z,68.54
2019-03-06T12:42:17.666Z,67.77
2019-03-06T12:44:53.985Z,67.20
2019-03-06T12:47:28.867Z,67.00
2019-03-06T12:50:07.360Z,66.08
2019-03-06T12:52:43.471Z,65.47
2019-03-06T12:55:18.362Z,67.01
2019-03-06T12:57:59.313Z,65.65
2019-03-06T13:00:29.962Z,65.12
2019-03-06T13:03:04.931Z,65.31
2019-03-06T13:05:39.851Z,65.57
2019-03-06T13:08:19.673Z,65.31
2019-03-06T13:10:51.365Z,65.11
2019-03-06T13:13:35.197Z,65.19
2019-03-06T13:16:02.851Z,65.93
2019-03-06T13:18:37.758Z,65.55
2019-03-06T13:21:12.773Z,64.86
2019-03-06T13:23:47.690Z,64.41
2019-03-06T13:26:22.785Z,65.71
2019-03-06T13:28:57.903Z,65.22
2019-03-06T13:31:33.057Z,66.89
2019-03-06T13:34:26.917Z,66.50
2019-03-06T13:37:01.879Z,65.85
2019-03-06T13:39:36.756Z,65.51
2019-03-06T13:42:11.672Z,65.61
2019-03-06T13:44:46.609Z,65.48
2019-03-06T13:47:22.455Z,64.30
2019-03-06T13:49:58.339Z,64.89
2019-03-06T13:52:33.463Z,63.22
2019-03-06T13:55:09.247Z,64.25
2019-03-06T13:57:44.657Z,64.32
2019-03-06T14:00:20.157Z,62.94
2019-03-06T14:02:55.203Z,64.11
2019-03-06T14:05:30.286Z,64.31
2019-03-06T14:08:07.215Z,62.67
2019-03-06T14:10:42.772Z,63.31
2019-03-06T14:13:17.678Z,63.18
2019-03-06T14:15:54.138Z,62.94
2019-03-06T14:18:29.287Z,63.74
2019-03-06T14:21:04.251Z,61.62
2019-03-06T14:23:40.259Z,62.87
2019-03-06T14:26:15.185Z,63.66
2019-03-06T14:28:50.172Z,62.94
2019-03-06T14:31:25.173Z,63.61
2019-03-06T14:34:00.161Z,63.71
2019-03-06T14:36:36.689Z,63.24
2019-03-06T14:39:29.924Z,63.86
2019-03-06T14:42:05.193Z,63.77
2019-03-06T14:44:39.971Z,64.63
2019-03-06T14:47:16.705Z,65.33
2019-03-06T14:49:51.611Z,65.60
2019-03-06T14:52:26.501Z,66.56
2019-03-06T14:55:01.502Z,66.95
2019-03-06T14:57:36.427Z,67.45
2019-03-06T15:00:14.279Z,69.31
2019-03-06T15:02:49.279Z,70.35
2019-03-06T15:05:24.361Z,70.30
2019-03-06T15:07:59.539Z,69.08
2019-03-06T15:10:43.059Z,69.33
2019-03-06T15:13:13.737Z,69.06
2019-03-06T15:15:48.712Z,69.23
2019-03-06T15:18:23.729Z,70.51
2019-03-06T15:20:58.737Z,71.80
2019-03-06T15:23:33.799Z,73.83
2019-03-06T15:26:09.977Z,75.35
2019-03-06T15:28:48.110Z,74.48
2019-03-06T15:31:24.117Z,75.82
2019-03-06T15:33:58.995Z,76.66
2019-03-06T15:36:34.281Z,78.16
2019-03-06T15:39:45.657Z,78.15
2019-03-06T15:42:16.810Z,78.18
2019-03-06T15:44:55.813Z,79.40
2019-03-06T15:47:33.712Z,79.73
2019-03-06T15:50:09.944Z,79.95
2019-03-06T15:52:44.931Z,80.35
2019-03-06T15:55:22.413Z,80.89
2019-03-06T15:57:57.529Z,81.33
2019-03-06T16:00:34.447Z,81.27
2019-03-06T16:03:09.974Z,82.39
2019-03-06T16:05:45.171Z,82.87
2019-03-06T16:08:20.072Z,82.55
2019-03-06T16:10:55.217Z,82.88
2019-03-06T16:13:30.183Z,82.88
2019-03-06T16:16:06.073Z,83.03
2019-03-06T16:18:41.023Z,83.58
2019-03-06T16:21:16.313Z,83.96
2019-03-06T16:23:51.432Z,83.37
2019-03-06T16:26:26.458Z,83.63
2019-03-06T16:29:01.342Z,83.55
2019-03-06T16:31:36.285Z,83.70
2019-03-06T16:34:11.181Z,83.61
2019-03-06T16:36:46.161Z,83.79
2019-03-06T16:39:21.318Z,83.77
2019-03-06T16:41:56.347Z,84.32
2019-03-06T16:44:31.392Z,84.55
2019-03-06T16:47:07.083Z,84.13
2019-03-06T16:49:43.203Z,84.01
2019-03-06T16:52:18.208Z,83.86
2019-03-06T16:54:53.082Z,83.96
2019-03-06T16:57:28.005Z,84.15
2019-03-06T17:00:04.778Z,84.33
2019-03-06T17:02:40.142Z,84.43
2019-03-06T17:05:19.124Z,84.73
2019-03-06T17:07:54.868Z,84.92
2019-03-06T17:10:30.121Z,84.84
2019-03-06T17:13:05.556Z,85.15
2019-03-06T17:15:40.880Z,85.16
2019-03-06T17:18:21.746Z,84.92
2019-03-06T17:20:56.699Z,85.00
2019-03-06T17:23:31.930Z,84.92
2019-03-06T17:26:06.962Z,84.62
2019-03-06T17:28:42.055Z,84.48
2019-03-06T17:31:17.011Z,84.64
2019-03-06T17:33:51.989Z,84.96
2019-03-06T17:36:26.984Z,84.97
2019-03-06T17:39:05.280Z,84.84
2019-03-06T17:41:40.768Z,84.58
2019-03-06T17:44:15.689Z,84.51
2019-03-06T17:46:50.631Z,84.19
2019-03-06T17:49:25.536Z,84.13
2019-03-06T17:52:07.416Z,84.07
2019-03-06T17:54:47.909Z,83.88
2019-03-06T17:57:22.764Z,82.73
2019-03-06T17:59:57.649Z,82.22
2019-03-06T18:02:33.718Z,81.07
2019-03-06T18:05:09.286Z,80.82
2019-03-06T18:07:44.407Z,80.26
2019-03-06T18:10:20.450Z,81.15
2019-03-06T18:12:55.346Z,80.74
2019-03-06T18:15:30.866Z,80.32
2019-03-06T18:18:06.293Z,80.29
2019-03-06T18:20:42.107Z,78.74
2019-03-06T18:23:17.237Z,79.10
2019-03-06T18:25:52.545Z,78.97
2019-03-06T18:28:27.574Z,78.18
2019-03-06T18:31:02.590Z,77.77
2019-03-06T18:33:37.501Z,77.21
2019-03-06T18:36:12.985Z,77.57
2019-03-06T18:38:52.772Z,76.72
2019-03-06T18:41:27.726Z,77.71
2019-03-06T18:44:02.677Z,76.98
2019-03-06T18:46:37.941Z,77.83
2019-03-06T18:49:12.894Z,77.63
2019-03-06T18:51:53.778Z,77.57
2019-03-06T18:54:30.173Z,76.67
2019-03-06T18:57:14.228Z,75.93
2019-03-06T18:59:52.008Z,76.56
2019-03-06T19:02:26.881Z,76.30
2019-03-06T19:05:01.741Z,75.78
2019-03-06T19:07:36.762Z,75.29
2019-03-06T19:10:14.174Z,75.20
2019-03-06T19:12:50.450Z,75.54
2019-03-06T19:15:25.394Z,75.85
2019-03-06T19:18:00.279Z,76.19
2019-03-06T19:20:35.312Z,76.39
2019-03-06T19:23:10.389Z,77.40
2019-03-06T19:25:46.372Z,77.93
2019-03-06T19:28:21.336Z,77.84
2019-03-06T19:30:56.277Z,76.92
2019-03-06T19:33:31.324Z,76.89
2019-03-06T19:36:06.210Z,76.67
2019-03-06T19:38:41.095Z,77.09
2019-03-06T19:41:16.021Z,77.13
2019-03-06T19:43:50.910Z,77.32
2019-03-06T19:46:25.860Z,77.72
2019-03-06T19:49:00.727Z,76.97
2019-03-06T19:51:35.711Z,77.37
2019-03-06T19:54:11.295Z,76.91
2019-03-06T19:56:46.197Z,76.80
2019-03-06T19:59:21.594Z,76.52
2019-03-06T20:01:56.471Z,76.48
2019-03-06T20:04:31.342Z,76.42
2019-03-06T20:07:06.509Z,76.44
2019-03-06T20:09:41.495Z,76.02
2019-03-06T20:12:16.573Z,76.05
2019-03-06T20:14:51.477Z,76.18
2019-03-06T20:17:26.372Z,75.52
2019-03-06T20:20:01.251Z,75.38
2019-03-06T20:22:36.299Z,75.80
2019-03-06T20:25:11.609Z,75.67
2019-03-06T20:27:46.624Z,75.79
2019-03-06T20:30:22.348Z,75.99
2019-03-06T20:32:57.607Z,75.98
2019-03-06T20:35:33.036Z,75.73
2019-03-06T20:38:08.050Z,75.63
2019-03-06T20:40:42.974Z,75.65
2019-03-06T20:43:17.986Z,76.08
2019-03-06T20:45:52.907Z,75.91
2019-03-06T20:48:30.453Z,76.31
2019-03-06T20:51:08.358Z,76.59
2019-03-06T20:53:45.004Z,76.37
2019-03-06T20:56:19.910Z,76.24
2019-03-06T20:58:54.889Z,76.65
2019-03-06T21:01:29.681Z,76.34
2019-03-06T21:04:07.270Z,76.39
2019-03-06T21:06:43.406Z,76.62
2019-03-06T21:09:18.322Z,76.60
2019-03-06T21:11:54.254Z,76.60
2019-03-06T21:14:29.552Z,76.41
2019-03-06T21:17:06.885Z,76.63
2019-03-06T21:19:44.725Z,77.03
2019-03-06T21:22:20.108Z,76.91
2019-03-06T21:24:55.199Z,76.81
2019-03-06T21:27:30.136Z,77.03
2019-03-06T21:30:05.939Z,77.00
2019-03-06T21:32:42.262Z,76.69
2019-03-06T21:35:18.738Z,76.77
2019-03-06T21:37:53.685Z,76.84
2019-03-06T21:40:28.609Z,76.96
2019-03-06T21:43:03.480Z,77.28
2019-03-06T21:45:38.399Z,77.22
2019-03-06T21:48:30.862Z,77.28
2019-03-06T21:51:05.801Z,76.95
2019-03-06T21:53:40.671Z,77.05
2019-03-06T21:56:15.714Z,77.07
2019-03-06T21:58:50.640Z,77.34
2019-03-06T22:01:25.646Z,77.27
2019-03-06T22:04:00.488Z,77.68
2019-03-06T22:06:35.423Z,78.01
2019-03-06T22:09:14.912Z,78.57
2019-03-06T22:11:49.821Z,78.81
2019-03-06T22:14:25.650Z,79.23
2019-03-06T22:17:00.576Z,79.04
2019-03-06T22:19:35.592Z,79.71
2019-03-06T22:22:10.392Z,79.86
2019-03-06T22:24:45.168Z,80.43
2019-03-06T22:27:21.103Z,80.46
2019-03-06T22:29:56.394Z,80.43
2019-03-06T22:32:31.344Z,80.45
2019-03-06T22:35:06.845Z,80.56
2019-03-06T22:37:41.701Z,80.30
2019-03-06T22:40:16.888Z,80.39
2019-03-06T22:42:51.798Z,79.94
2019-03-06T22:45:27.139Z,80.43
2019-03-06T22:48:04.759Z,80.12
2019-03-06T22:50:40.849Z,80.03
2019-03-06T22:53:15.914Z,79.61
2019-03-06T22:59:49.460Z,78.96
2019-03-06T23:02:25.695Z,78.98
2019-03-06T23:13:38.810Z,78.89
2019-03-06T23:16:13.710Z,78.76
2019-03-06T23:18:48.612Z,78.92
2019-03-06T23:21:23.496Z,79.06
2019-03-06T23:23:58.674Z,78.75
2019-03-06T23:26:42.449Z,78.90
2019-03-06T23:29:10.222Z,79.21
2019-03-06T23:31:46.509Z,79.28
2019-03-06T23:34:21.440Z,79.25
2019-03-06T23:36:56.248Z,79.08
2019-03-06T23:39:31.301Z,79.20
2019-03-06T23:42:09.768Z,79.08
2019-03-06T23:44:44.562Z,79.16
2019-03-06T23:47:19.456Z,79.36
2019-03-06T23:49:57.456Z,79.39
2019-03-06T23:52:51.262Z,79.47
2019-03-06T23:55:27.718Z,79.79
2019-03-06T23:58:04.764Z,79.93
